Holland, Pennsylvania
Current Conditions -  °F | °C
As of 6:54 AM on Saturday 22 Nov 2014 (Local Time) from KPNE Reporting Station
Clear Clear  
Wind Chill: 22°   Ceiling: Unl
Heat Index: 22°   Visibility: 10mi
Dew Point: 11°   Wind: 0mph
Humidity: 63%   Direction: NA
Pressure: 30.53"   Gusts: NA
Location:  40.1871°N, 75.0054°W
Report Text: KPNE 221154Z AUTO 00000KT 10SM CLR M06/M12 A3053 RMK AO2 SLP340 T10561117 11022 21056 51002 TSNO
Loading
Personal Weather Stations






























Interactive Weather Map New forecast layout! Learn more

10-Day Weather Forecast

Advertisements
Track Severe Weather on mobile